Time;durP1;ratioP1;P1;durP2;ratioP2;P2;SDS_P1;SDS_P2;PMS_P1;PMS_P2;Temp;Humidity;BMP_temperature;BMP_pressure;BME280_temperature;BME280_humidity;BME280_pressure;Samples;Min_cycle;Max_cycle;Signal;HPM_P1;HPM_P2
2022/09/20 00:00:49;;;;;;;;;;;;;;;12.74;69.77;100397.41;5321708;32;32733;-71
2022/09/20 00:04:03;;;;;;;;;;;;;;;12.75;69.31;100401.72;5325145;32;33841;-65
2022/09/20 00:07:05;;;;;;;;;;;;;;;12.11;72.46;100386.31;5338238;32;33552;-69
2022/09/20 00:10:07;;;;;;;;;;;;;;;12.24;71.54;100391.88;5326887;32;33649;-65
2022/09/20 00:13:10;;;;;;;;;;;;;;;12.46;70.32;100389.94;5340899;32;34064;-65
2022/09/20 00:16:16;;;;;;;;;;;;;;;12.04;72.32;100388.34;5322099;32;33313;-69
2022/09/20 00:19:19;;;;;;;;;;;;;;;12.63;70.63;100376.84;5329355;32;33548;-71
2022/09/20 00:22:21;;;;;;;;;;;;;;;12.48;69.98;100382.81;5330637;32;33358;-70
2022/09/20 00:25:23;;;;;;;;;;;;;;;13.22;67.24;100388.06;5322335;32;44540;-73
2022/09/20 00:28:26;;;;;;;;;;;;;;;12.99;68.48;100392.66;5340837;32;34110;-64
2022/09/20 00:31:27;;;;;;;;;;;;;;;11.74;71.27;100390.53;5319635;32;33521;-71
2022/09/20 00:35:12;;;;;;;;;;;;;;;11.80;72.93;100395.53;5342612;32;34330;-71
2022/09/20 00:37:54;;;;;;;;;;;;;;;12.18;72.33;100390.38;5320269;32;45176;-65
2022/09/20 00:40:56;;;;;;;;;;;;;;;11.34;74.94;100383.50;5322156;32;33725;-65
2022/09/20 00:43:59;;;;;;;;;;;;;;;11.91;72.97;100379.28;5318681;32;34372;-65
2022/09/20 00:47:01;;;;;;;;;;;;;;;12.44;70.19;100378.63;5319822;32;33163;-63
2022/09/20 00:50:21;;;;;;;;;;;;;;;12.00;71.98;100385.94;5343130;32;33999;-71
2022/09/20 00:53:42;;;;;;;;;;;;;;;11.56;73.63;100383.44;5325047;32;44551;-70
2022/09/20 00:56:44;;;;;;;;;;;;;;;11.65;74.87;100390.94;5323639;32;32876;-70
2022/09/20 00:59:46;;;;;;;;;;;;;;;11.65;73.93;100388.28;5341973;32;33718;-64
2022/09/20 01:02:49;;;;;;;;;;;;;;;12.21;70.57;100387.59;5320822;32;33361;-64
2022/09/20 01:05:51;;;;;;;;;;;;;;;12.10;71.59;100397.75;5337311;32;33823;-71
2022/09/20 01:08:53;;;;;;;;;;;;;;;11.96;71.38;100394.88;5327711;32;45793;-64
2022/09/20 01:11:55;;;;;;;;;;;;;;;11.78;71.26;100394.72;5336075;32;34543;-70
2022/09/20 01:14:57;;;;;;;;;;;;;;;11.30;74.80;100400.34;5322577;32;33905;-64
2022/09/20 01:17:59;;;;;;;;;;;;;;;11.11;74.81;100390.56;5324194;32;34137;-71
2022/09/20 01:21:01;;;;;;;;;;;;;;;11.66;73.79;100404.03;5338362;32;33645;-71
2022/09/20 01:24:12;;;;;;;;;;;;;;;11.80;72.69;100397.31;5321271;32;33518;-66
2022/09/20 01:27:17;;;;;;;;;;;;;;;11.82;72.93;100392.87;5340889;32;34288;-64
2022/09/20 01:30:19;;;;;;;;;;;;;;;11.54;72.88;100394.03;5322105;32;33994;-71
2022/09/20 01:33:30;;;;;;;;;;;;;;;12.36;69.17;100392.13;5331288;32;34480;-70
2022/09/20 01:36:38;;;;;;;;;;;;;;;12.45;67.33;100375.06;5334599;32;36008;-64
2022/09/20 01:39:49;;;;;;;;;;;;;;;11.76;70.76;100393.94;5321322;32;32894;-65
2022/09/20 01:43:11;;;;;;;;;;;;;;;11.95;71.01;100396.66;5326099;32;33889;-69
2022/09/20 01:46:17;;;;;;;;;;;;;;;11.79;70.66;100395.63;5319854;32;33386;-64
2022/09/20 01:49:22;;;;;;;;;;;;;;;11.52;71.84;100410.81;5331122;32;33745;-72
2022/09/20 01:52:34;;;;;;;;;;;;;;;12.10;69.92;100403.88;5327543;32;44442;-70
2022/09/20 01:55:51;;;;;;;;;;;;;;;11.63;71.30;100400.69;5306005;32;33594;-64
2022/09/20 01:59:02;;;;;;;;;;;;;;;11.75;70.43;100400.16;5326911;32;44581;-71
2022/09/20 02:02:42;;;;;;;;;;;;;;;12.32;69.08;100392.38;5324918;32;46441;-71
2022/09/20 02:05:53;;;;;;;;;;;;;;;12.94;66.37;100388.50;5320557;32;34216;-64
2022/09/20 02:09:14;;;;;;;;;;;;;;;11.85;71.07;100393.59;5343820;32;45239;-63
2022/09/20 02:12:34;;;;;;;;;;;;;;;11.83;70.50;100403.31;5323230;32;33826;-64
2022/09/20 02:15:46;;;;;;;;;;;;;;;12.86;67.16;100391.53;5324796;32;34412;-65
2022/09/20 02:19:13;;;;;;;;;;;;;;;12.27;68.93;100394.34;5327319;32;33926;-65
2022/09/20 02:22:14;;;;;;;;;;;;;;;12.46;68.09;100374.97;5317460;32;33091;-63
2022/09/20 02:25:16;;;;;;;;;;;;;;;12.48;68.17;100390.72;5337994;32;33826;-70
2022/09/20 02:28:18;;;;;;;;;;;;;;;12.67;67.09;100385.44;5323528;32;34201;-63
2022/09/20 02:31:29;;;;;;;;;;;;;;;12.42;68.27;100393.63;5332733;32;33642;-70
2022/09/20 02:34:51;;;;;;;;;;;;;;;12.11;69.22;100389.81;5323575;32;44889;-71
2022/09/20 02:38:12;;;;;;;;;;;;;;;12.03;70.09;100391.91;5321093;32;44668;-72
2022/09/20 02:41:22;;;;;;;;;;;;;;;12.12;69.06;100391.50;5340229;32;33398;-65
2022/09/20 02:44:27;;;;;;;;;;;;;;;12.01;69.66;100398.19;5300569;32;44555;-71
2022/09/20 02:47:34;;;;;;;;;;;;;;;12.12;69.26;100395.91;5334016;32;33821;-65
2022/09/20 02:50:51;;;;;;;;;;;;;;;11.97;69.01;100400.06;5328414;32;33463;-70
2022/09/20 02:53:59;;;;;;;;;;;;;;;12.01;69.42;100401.66;5323838;32;44735;-71
2022/09/20 02:57:10;;;;;;;;;;;;;;;11.29;72.43;100402.13;5341785;32;33723;-72
2022/09/20 03:00:32;;;;;;;;;;;;;;;11.51;71.80;100403.84;5309195;32;33602;-64
2022/09/20 03:03:37;;;;;;;;;;;;;;;11.38;71.42;100399.09;5333722;32;34375;-63
2022/09/20 03:06:41;;;;;;;;;;;;;;;11.69;70.47;100392.50;5331706;32;33354;-64
2022/09/20 03:09:55;;;;;;;;;;;;;;;11.51;70.96;100393.31;5322485;32;33212;-63
2022/09/20 03:13:04;;;;;;;;;;;;;;;11.59;70.92;100404.34;5340679;32;44652;-64
2022/09/20 03:16:06;;;;;;;;;;;;;;;11.33;72.21;100395.81;5314673;32;34098;-70
2022/09/20 03:19:12;;;;;;;;;;;;;;;11.05;73.33;100406.59;5339315;32;33273;-70
2022/09/20 03:22:18;;;;;;;;;;;;;;;11.68;70.63;100395.22;5324124;32;34292;-64
2022/09/20 03:25:33;;;;;;;;;;;;;;;12.04;69.59;100393.59;5316925;32;36507;-68
2022/09/20 03:28:46;;;;;;;;;;;;;;;11.31;71.75;100387.09;5335958;32;34315;-69
2022/09/20 03:31:51;;;;;;;;;;;;;;;11.27;72.88;100384.66;5321718;32;33644;-64
2022/09/20 03:34:56;;;;;;;;;;;;;;;11.30;71.72;100388.03;5339473;32;46985;-63
2022/09/20 03:38:07;;;;;;;;;;;;;;;10.98;73.21;100399.87;5325016;32;33857;-70
2022/09/20 03:41:19;;;;;;;;;;;;;;;11.10;72.97;100403.78;5318260;32;32838;-64
2022/09/20 03:44:25;;;;;;;;;;;;;;;11.31;71.78;100395.00;5314968;32;34188;-71
2022/09/20 03:47:31;;;;;;;;;;;;;;;11.08;73.65;100403.00;5318049;32;44613;-65
2022/09/20 03:51:09;;;;;;;;;;;;;;;11.34;71.99;100402.78;5335543;32;34341;-65
2022/09/20 03:54:21;;;;;;;;;;;;;;;11.09;72.60;100408.19;5269568;32;33229;-64
2022/09/20 03:57:38;;;;;;;;;;;;;;;11.45;71.52;100406.72;5321708;32;48194;-63
2022/09/20 04:00:55;;;;;;;;;;;;;;;10.67;74.50;100410.75;5340164;32;33103;-63
2022/09/20 04:04:16;;;;;;;;;;;;;;;10.81;74.84;100411.06;5321950;32;46951;-71
2022/09/20 04:07:34;;;;;;;;;;;;;;;11.39;72.20;100410.47;5329191;32;33874;-70
2022/09/20 04:10:51;;;;;;;;;;;;;;;11.16;72.42;100421.09;5335140;32;33543;-65
2022/09/20 04:14:02;;;;;;;;;;;;;;;11.65;70.06;100423.37;5320657;32;46878;-71
2022/09/20 04:17:29;;;;;;;;;;;;;;;12.19;68.87;100426.34;5334884;32;32893;-64
2022/09/20 04:20:49;;;;;;;;;;;;;;;12.33;67.44;100428.34;5315013;32;44702;-64
2022/09/20 04:23:51;;;;;;;;;;;;;;;12.54;66.90;100427.34;5320022;32;33718;-63
2022/09/20 04:27:03;;;;;;;;;;;;;;;12.13;67.67;100434.50;5337686;32;46893;-63
2022/09/20 04:30:06;;;;;;;;;;;;;;;12.25;67.64;100431.31;5315794;32;33856;-65
2022/09/20 04:33:18;;;;;;;;;;;;;;;11.56;70.30;100433.44;5338264;32;36258;-63
2022/09/20 04:36:29;;;;;;;;;;;;;;;11.43;71.01;100448.06;5313720;32;34580;-69
2022/09/20 04:39:47;;;;;;;;;;;;;;;11.64;69.87;100444.50;5321506;32;44693;-71
2022/09/20 04:43:10;;;;;;;;;;;;;;;11.84;69.19;100444.53;5324208;32;33902;-72
2022/09/20 04:46:31;;;;;;;;;;;;;;;11.61;69.97;100447.28;5310458;32;34035;-64
2022/09/20 04:49:33;;;;;;;;;;;;;;;11.71;69.64;100448.59;5331082;32;33417;-70
2022/09/20 04:52:54;;;;;;;;;;;;;;;11.55;70.94;100444.91;5321184;32;32875;-68
2022/09/20 04:56:05;;;;;;;;;;;;;;;11.94;69.38;100445.00;5323182;32;45161;-64
2022/09/20 04:59:09;;;;;;;;;;;;;;;11.59;70.17;100442.09;5335138;32;33189;-65
2022/09/20 05:02:41;;;;;;;;;;;;;;;11.59;70.85;100436.81;5323970;32;33458;-64
2022/09/20 05:05:54;;;;;;;;;;;;;;;11.90;68.38;100436.38;5311535;32;32951;-66
2022/09/20 05:09:20;;;;;;;;;;;;;;;12.36;66.45;100431.66;5330729;32;45522;-64
2022/09/20 05:12:42;;;;;;;;;;;;;;;11.60;70.73;100445.56;5319966;32;43167;-71
2022/09/20 05:15:51;;;;;;;;;;;;;;;11.56;70.79;100441.34;5334607;32;34265;-64
2022/09/20 05:18:57;;;;;;;;;;;;;;;11.58;70.32;100435.09;5323172;32;45297;-64
2022/09/20 05:22:16;;;;;;;;;;;;;;;11.75;69.26;100437.00;5320658;32;33706;-71
2022/09/20 05:25:24;;;;;;;;;;;;;;;12.77;65.47;100433.34;5338281;32;34265;-72
2022/09/20 05:28:33;;;;;;;;;;;;;;;13.98;61.02;100434.31;5321462;32;45082;-64
2022/09/20 05:31:43;;;;;;;;;;;;;;;13.32;61.68;100446.50;5332330;32;33882;-64
2022/09/20 05:35:05;;;;;;;;;;;;;;;15.21;56.60;100435.56;5325122;32;34098;-66
2022/09/20 05:38:10;;;;;;;;;;;;;;;15.15;56.56;100431.47;5302043;32;33049;-64
2022/09/20 05:41:23;;;;;;;;;;;;;;;15.28;55.89;100443.06;5335098;32;32931;-63
2022/09/20 05:44:44;;;;;;;;;;;;;;;16.29;52.81;100450.28;5301076;32;44459;-69
2022/09/20 05:47:51;;;;;;;;;;;;;;;16.41;52.83;100451.31;5330913;32;34103;-66
2022/09/20 05:50:53;;;;;;;;;;;;;;;14.47;56.88;100466.09;5322056;32;43706;-66
2022/09/20 05:54:16;;;;;;;;;;;;;;;13.49;60.68;100471.16;5322259;32;33123;-67
2022/09/20 05:57:21;;;;;;;;;;;;;;;14.05;58.99;100472.69;5333961;32;34330;-68
2022/09/20 06:00:26;;;;;;;;;;;;;;;14.92;57.69;100459.22;5320838;32;44690;-64
2022/09/20 06:03:36;;;;;;;;;;;;;;;15.12;55.95;100458.94;5330647;32;33146;-68
2022/09/20 06:06:57;;;;;;;;;;;;;;;16.03;53.01;100462.47;5319406;32;32994;-63
2022/09/20 06:09:59;;;;;;;;;;;;;;;16.76;51.22;100457.97;5306018;32;44480;-63
2022/09/20 06:13:14;;;;;;;;;;;;;;;17.52;49.40;100465.41;5330531;32;32987;-63
2022/09/20 06:16:17;;;;;;;;;;;;;;;16.84;50.27;100468.09;5315038;32;32991;-63
2022/09/20 06:19:23;;;;;;;;;;;;;;;17.77;47.61;100459.28;5326426;32;33756;-64
2022/09/20 06:22:51;;;;;;;;;;;;;;;17.09;49.12;100462.06;5313508;32;45246;-64
2022/09/20 06:25:57;;;;;;;;;;;;;;;17.10;49.37;100471.72;5311346;32;44470;-65
2022/09/20 06:29:00;;;;;;;;;;;;;;;15.57;53.51;100465.19;5329357;32;32920;-65
2022/09/20 06:32:02;;;;;;;;;;;;;;;17.24;49.10;100462.84;5310664;32;34203;-69
2022/09/20 06:35:04;;;;;;;;;;;;;;;17.14;48.26;100473.25;5326274;32;34284;-62
2022/09/20 06:41:31;;;;;;;;;;;;;;;17.47;48.95;100469.31;5316461;32;44380;-65
2022/09/20 06:44:36;;;;;;;;;;;;;;;17.94;47.75;100482.09;5303911;32;32802;-68
2022/09/20 06:47:39;;;;;;;;;;;;;;;17.51;48.69;100481.41;5315861;32;34291;-64
2022/09/20 06:50:44;;;;;;;;;;;;;;;18.19;46.96;100478.59;5317097;32;32979;-63
2022/09/20 06:53:46;;;;;;;;;;;;;;;20.25;42.63;100478.56;5311121;32;33065;-66
2022/09/20 06:56:48;;;;;;;;;;;;;;;20.28;41.32;100475.62;5321216;32;34565;-68
2022/09/20 06:59:50;;;;;;;;;;;;;;;19.62;42.20;100480.69;5319012;32;32859;-68
2022/09/20 07:02:52;;;;;;;;;;;;;;;20.66;40.43;100488.66;5318306;32;34255;-69
2022/09/20 07:05:55;;;;;;;;;;;;;;;18.10;45.39;100492.53;5325037;32;43350;-66
2022/09/20 07:08:56;;;;;;;;;;;;;;;18.70;44.38;100488.37;5312249;32;35803;-70
2022/09/20 07:11:59;;;;;;;;;;;;;;;19.01;43.25;100485.22;5334019;32;33129;-70
2022/09/20 07:15:00;;;;;;;;;;;;;;;18.76;43.63;100502.13;5318588;32;32832;-66
2022/09/20 07:18:02;;;;;;;;;;;;;;;18.28;45.63;100498.37;5320160;32;34712;-67
2022/09/20 07:21:05;;;;;;;;;;;;;;;18.79;44.51;100498.37;5328038;32;32974;-67
2022/09/20 07:24:07;;;;;;;;;;;;;;;18.55;45.05;100500.94;5323956;32;32896;-68
2022/09/20 07:27:10;;;;;;;;;;;;;;;17.50;48.01;100519.59;5332282;32;34069;-65
2022/09/20 07:30:13;;;;;;;;;;;;;;;19.88;42.26;100510.72;5322342;32;33085;-68
2022/09/20 07:33:20;;;;;;;;;;;;;;;20.01;41.63;100514.16;5328098;32;33113;-70
2022/09/20 07:36:22;;;;;;;;;;;;;;;19.78;41.02;100509.75;5319005;32;46051;-70
2022/09/20 07:39:24;;;;;;;;;;;;;;;20.01;41.37;100522.16;5318197;32;33974;-66
2022/09/20 07:42:28;;;;;;;;;;;;;;;18.54;43.88;100517.84;5318075;32;33099;-67
2022/09/20 07:45:30;;;;;;;;;;;;;;;19.20;43.00;100514.03;5310169;32;34721;-70
2022/09/20 07:48:34;;;;;;;;;;;;;;;19.17;43.41;100519.56;5327214;32;34409;-66
2022/09/20 07:51:35;;;;;;;;;;;;;;;20.96;39.55;100516.59;5320835;32;33537;-66
2022/09/20 07:54:38;;;;;;;;;;;;;;;20.15;40.26;100521.09;5335165;32;33137;-67
2022/09/20 07:57:41;;;;;;;;;;;;;;;19.85;40.62;100526.13;5303123;32;33613;-65
2022/09/20 08:00:43;;;;;;;;;;;;;;;18.70;43.20;100533.66;5323210;32;34207;-66
2022/09/20 08:03:45;;;;;;;;;;;;;;;17.49;46.51;100536.47;5327708;32;33242;-68
2022/09/20 08:06:47;;;;;;;;;;;;;;;17.26;46.73;100525.56;5298752;32;33573;-65
2022/09/20 08:09:49;;;;;;;;;;;;;;;16.25;49.66;100515.94;5328907;32;33526;-69
2022/09/20 08:12:51;;;;;;;;;;;;;;;15.40;52.01;100526.25;5297070;32;33420;-66
2022/09/20 08:16:13;;;;;;;;;;;;;;;16.09;51.21;100525.75;5330567;32;33256;-73
2022/09/20 08:19:16;;;;;;;;;;;;;;;14.62;54.68;100528.78;5322592;32;34110;-71
2022/09/20 08:22:18;;;;;;;;;;;;;;;15.26;53.59;100527.00;5318781;32;32064;-72
2022/09/20 08:25:20;;;;;;;;;;;;;;;15.39;53.87;100529.81;5336154;32;33313;-68
2022/09/20 08:28:22;;;;;;;;;;;;;;;15.40;54.04;100520.94;5313440;32;44435;-65
2022/09/20 08:31:25;;;;;;;;;;;;;;;15.41;53.96;100523.50;5327440;32;32946;-65
2022/09/20 08:34:27;;;;;;;;;;;;;;;15.51;54.15;100539.72;5310357;32;35323;-69
2022/09/20 08:37:29;;;;;;;;;;;;;;;14.24;57.75;100548.41;5314073;32;34618;-67
2022/09/20 08:40:31;;;;;;;;;;;;;;;14.74;56.73;100542.25;5319420;32;33822;-66
2022/09/20 08:43:59;;;;;;;;;;;;;;;15.55;53.42;100541.25;5298958;32;32839;-70
2022/09/20 08:47:04;;;;;;;;;;;;;;;15.22;53.75;100532.56;5335152;32;47827;-64
2022/09/20 08:50:06;;;;;;;;;;;;;;;15.62;52.48;100536.47;5315418;32;33675;-65
2022/09/20 08:53:12;;;;;;;;;;;;;;;15.36;52.80;100545.87;5326718;32;35538;-65
2022/09/20 08:56:14;;;;;;;;;;;;;;;15.73;53.08;100549.13;5330233;32;32849;-67
2022/09/20 08:59:18;;;;;;;;;;;;;;;16.15;50.62;100546.59;5319463;32;32910;-66
2022/09/20 09:02:21;;;;;;;;;;;;;;;17.10;48.24;100550.53;5332884;32;31897;-67
2022/09/20 09:05:30;;;;;;;;;;;;;;;16.24;50.42;100545.19;5322890;32;44264;-67
2022/09/20 09:08:33;;;;;;;;;;;;;;;15.68;51.96;100554.69;5335972;32;33251;-66
2022/09/20 09:11:39;;;;;;;;;;;;;;;15.57;52.30;100544.66;5313423;32;34289;-66
2022/09/20 09:14:56;;;;;;;;;;;;;;;16.44;50.60;100541.34;5325159;32;32943;-69
2022/09/20 09:17:57;;;;;;;;;;;;;;;16.48;50.84;100537.53;5315453;32;43791;-65
2022/09/20 09:21:02;;;;;;;;;;;;;;;17.02;47.34;100529.78;5316110;32;32626;-69
2022/09/20 09:24:08;;;;;;;;;;;;;;;18.86;42.95;100521.78;5335552;32;32633;-63
2022/09/20 09:27:13;;;;;;;;;;;;;;;17.36;46.79;100519.63;5319604;32;34153;-68
2022/09/20 09:30:21;;;;;;;;;;;;;;;16.41;48.82;100521.13;5336590;32;33002;-73
2022/09/20 09:33:25;;;;;;;;;;;;;;;16.49;49.65;100521.53;5326838;32;44705;-67
2022/09/20 09:36:27;;;;;;;;;;;;;;;16.84;47.71;100523.84;5318253;32;33249;-67
2022/09/20 09:39:30;;;;;;;;;;;;;;;16.07;49.82;100527.63;5332518;32;35146;-69
2022/09/20 09:42:32;;;;;;;;;;;;;;;17.55;46.79;100506.84;5300856;32;33477;-69
2022/09/20 09:45:37;;;;;;;;;;;;;;;19.23;42.72;100502.28;5329199;32;33138;-67
2022/09/20 09:48:39;;;;;;;;;;;;;;;19.66;41.40;100511.50;5320052;32;33078;-69
2022/09/20 09:52:01;;;;;;;;;;;;;;;19.27;41.77;100515.28;5309438;32;32904;-68
2022/09/20 09:55:03;;;;;;;;;;;;;;;19.97;39.67;100506.53;5332902;32;33234;-70
2022/09/20 09:58:11;;;;;;;;;;;;;;;18.77;42.54;100521.59;5320968;32;34188;-72
2022/09/20 10:01:26;;;;;;;;;;;;;;;19.60;40.78;100505.78;5318858;32;32972;-68
2022/09/20 10:04:40;;;;;;;;;;;;;;;20.72;38.99;100498.88;5320411;32;32046;-67
2022/09/20 10:07:45;;;;;;;;;;;;;;;22.19;36.13;100505.47;5315241;32;32868;-72
2022/09/20 10:10:53;;;;;;;;;;;;;;;22.15;35.42;100501.34;5326635;32;33364;-72
2022/09/20 10:14:05;;;;;;;;;;;;;;;19.46;40.99;100504.13;5309381;32;44511;-68
2022/09/20 10:17:39;;;;;;;;;;;;;;;21.10;38.12;100490.44;5333398;32;32923;-71
2022/09/20 10:20:59;;;;;;;;;;;;;;;19.33;41.39;100500.66;5300873;32;33185;-68
2022/09/20 10:24:11;;;;;;;;;;;;;;;18.86;42.76;100503.12;5310202;32;48211;-67
2022/09/20 10:27:16;;;;;;;;;;;;;;;17.32;46.12;100511.00;5313085;32;34185;-70
2022/09/20 10:30:25;;;;;;;;;;;;;;;18.27;44.13;100509.97;5320856;32;33009;-68
2022/09/20 10:33:36;;;;;;;;;;;;;;;18.43;42.12;100504.47;5329138;32;44926;-70
2022/09/20 10:36:42;;;;;;;;;;;;;;;16.49;46.46;100515.37;5327136;32;33033;-68
2022/09/20 10:39:44;;;;;;;;;;;;;;;17.44;44.99;100518.19;5320995;32;33181;-70
2022/09/20 10:46:17;;;;;;;;;;;;;;;17.08;46.23;100505.50;5317916;32;33137;-71
2022/09/20 10:49:36;;;;;;;;;;;;;;;16.49;47.96;100508.28;5338831;32;33093;-67
2022/09/20 10:52:48;;;;;;;;;;;;;;;16.70;47.52;100499.97;5320963;32;32894;-65
2022/09/20 10:55:58;;;;;;;;;;;;;;;18.24;44.33;100496.91;5319956;32;33061;-71
2022/09/20 10:59:03;;;;;;;;;;;;;;;17.87;44.15;100494.94;5329593;32;45372;-72
2022/09/20 11:02:26;;;;;;;;;;;;;;;17.94;43.51;100487.41;5315878;32;32929;-72
2022/09/20 11:05:29;;;;;;;;;;;;;;;18.32;42.90;100484.75;5325871;32;42863;-71
2022/09/20 11:08:32;;;;;;;;;;;;;;;17.64;44.27;100492.94;5312246;32;32944;-70
2022/09/20 11:11:37;;;;;;;;;;;;;;;18.73;42.58;100478.34;5322083;32;33154;-68
2022/09/20 11:15:15;;;;;;;;;;;;;;;18.27;43.74;100473.59;5322031;32;33210;-66
2022/09/20 11:18:21;;;;;;;;;;;;;;;18.24;44.57;100487.13;5242014;32;34224;-70
2022/09/20 11:21:24;;;;;;;;;;;;;;;18.23;44.28;100482.75;5323159;32;45234;-67
2022/09/20 11:24:29;;;;;;;;;;;;;;;18.33;44.68;100486.47;5304685;32;33753;-67
2022/09/20 11:27:32;;;;;;;;;;;;;;;18.07;44.87;100487.41;5312014;32;33041;-72
2022/09/20 11:30:34;;;;;;;;;;;;;;;16.77;46.85;100496.81;5305078;32;32113;-72
2022/09/20 11:33:39;;;;;;;;;;;;;;;17.46;45.04;100491.53;5317183;32;33010;-68
2022/09/20 11:36:44;;;;;;;;;;;;;;;17.78;45.01;100490.28;5322073;32;32917;-67
2022/09/20 11:39:50;;;;;;;;;;;;;;;16.99;47.21;100495.44;5313786;32;33704;-70
2022/09/20 11:42:52;;;;;;;;;;;;;;;17.42;46.77;100484.69;5299109;32;34352;-70
2022/09/20 11:45:54;;;;;;;;;;;;;;;16.90;48.58;100478.31;5308112;32;33302;-69
2022/09/20 11:49:09;;;;;;;;;;;;;;;17.00;48.22;100478.56;5319222;32;32337;-70
2022/09/20 11:52:31;;;;;;;;;;;;;;;17.82;46.64;100470.47;5332447;32;32954;-72
2022/09/20 11:55:37;;;;;;;;;;;;;;;17.94;45.87;100458.16;5309729;32;31898;-68
2022/09/20 11:58:47;;;;;;;;;;;;;;;17.87;46.11;100457.72;5323864;32;34254;-67
2022/09/20 12:01:49;;;;;;;;;;;;;;;18.60;43.57;100451.72;5322262;32;34215;-70
2022/09/20 12:04:52;;;;;;;;;;;;;;;19.42;41.57;100439.53;5303947;32;34098;-69
2022/09/20 12:07:54;;;;;;;;;;;;;;;19.01;41.12;100457.75;5329889;32;44658;-66
2022/09/20 12:11:00;;;;;;;;;;;;;;;18.58;41.93;100455.47;5307439;32;33173;-70
2022/09/20 12:14:06;;;;;;;;;;;;;;;18.44;42.61;100443.16;5322314;32;34166;-71
2022/09/20 12:17:27;;;;;;;;;;;;;;;19.27;40.44;100434.50;5302356;32;33181;-70
2022/09/20 12:20:33;;;;;;;;;;;;;;;18.86;41.39;100439.22;5316618;32;44315;-69
2022/09/20 12:23:39;;;;;;;;;;;;;;;18.80;42.12;100434.34;5325121;32;33235;-65
2022/09/20 12:26:41;;;;;;;;;;;;;;;19.29;41.99;100427.22;5314183;32;32842;-70
2022/09/20 12:29:50;;;;;;;;;;;;;;;19.34;41.55;100438.41;5308952;32;32991;-65
2022/09/20 12:32:53;;;;;;;;;;;;;;;19.50;40.70;100441.59;5315891;32;34020;-66
2022/09/20 12:35:59;;;;;;;;;;;;;;;20.07;39.32;100440.81;5323183;32;44396;-65
2022/09/20 12:39:08;;;;;;;;;;;;;;;19.95;38.51;100436.44;5316516;32;33007;-67
2022/09/20 12:42:10;;;;;;;;;;;;;;;20.72;38.11;100426.75;5311006;32;34204;-67
2022/09/20 12:45:16;;;;;;;;;;;;;;;19.99;39.73;100428.06;5316027;32;33074;-66
2022/09/20 12:48:18;;;;;;;;;;;;;;;19.98;40.20;100436.19;5311630;32;34550;-70
2022/09/20 12:54:53;;;;;;;;;;;;;;;18.82;42.15;100448.41;5321736;32;33378;-69
2022/09/20 12:58:19;;;;;;;;;;;;;;;18.74;43.05;100442.81;5306242;32;44755;-66
2022/09/20 13:01:21;;;;;;;;;;;;;;;17.87;44.86;100446.25;5329405;32;32909;-72
2022/09/20 13:04:42;;;;;;;;;;;;;;;17.79;45.25;100437.94;5315774;32;44206;-65
2022/09/20 13:07:51;;;;;;;;;;;;;;;17.94;44.36;100446.66;5322309;32;34511;-72
2022/09/20 13:10:58;;;;;;;;;;;;;;;17.56;43.76;100439.47;5325232;32;44780;-72
2022/09/20 13:14:01;;;;;;;;;;;;;;;17.23;45.12;100437.25;5318885;32;33058;-68
2022/09/20 13:17:13;;;;;;;;;;;;;;;18.52;43.12;100426.63;5331992;32;33047;-68
2022/09/20 13:20:33;;;;;;;;;;;;;;;19.38;41.95;100421.19;5320531;32;33377;-71
2022/09/20 13:23:44;;;;;;;;;;;;;;;20.65;39.70;100420.22;5320356;32;35937;-67
2022/09/20 13:26:48;;;;;;;;;;;;;;;19.74;40.60;100426.44;5333744;32;33065;-70
2022/09/20 13:29:52;;;;;;;;;;;;;;;19.35;41.61;100432.97;5306737;32;33295;-68
2022/09/20 13:32:54;;;;;;;;;;;;;;;18.59;43.12;100434.06;5328756;32;44556;-68
2022/09/20 13:35:57;;;;;;;;;;;;;;;18.61;42.09;100439.25;5320340;32;33980;-67
2022/09/20 13:38:59;;;;;;;;;;;;;;;17.81;44.62;100441.34;5336366;32;33104;-66
2022/09/20 13:42:05;;;;;;;;;;;;;;;17.99;43.96;100445.41;5317359;32;34321;-68
2022/09/20 13:45:10;;;;;;;;;;;;;;;16.73;46.84;100441.38;5304661;32;33017;-67
2022/09/20 13:48:12;;;;;;;;;;;;;;;17.23;46.18;100435.44;5330137;32;33945;-68
2022/09/20 13:51:18;;;;;;;;;;;;;;;17.54;46.31;100442.22;5318226;32;33193;-69
2022/09/20 13:54:26;;;;;;;;;;;;;;;18.61;44.51;100442.81;5319331;32;34145;-68
2022/09/20 13:57:28;;;;;;;;;;;;;;;16.98;48.21;100441.50;5321285;32;44427;-68
2022/09/20 14:00:30;;;;;;;;;;;;;;;17.58;46.60;100438.41;5324878;32;34343;-66
2022/09/20 14:03:34;;;;;;;;;;;;;;;18.47;43.94;100434.09;5310703;32;34610;-73
2022/09/20 14:06:36;;;;;;;;;;;;;;;17.83;44.69;100440.28;5294978;32;32991;-72
2022/09/20 14:09:38;;;;;;;;;;;;;;;17.67;44.58;100450.22;5325906;32;34033;-67
2022/09/20 14:12:40;;;;;;;;;;;;;;;17.71;43.84;100449.09;5314568;32;33801;-70
2022/09/20 14:15:43;;;;;;;;;;;;;;;18.57;41.73;100438.66;5314486;32;32786;-70
2022/09/20 14:18:46;;;;;;;;;;;;;;;17.51;43.19;100445.06;5302522;32;33685;-72
2022/09/20 14:21:48;;;;;;;;;;;;;;;18.62;40.90;100438.31;5329298;32;34340;-71
2022/09/20 14:25:01;;;;;;;;;;;;;;;17.12;44.06;100440.59;5315394;32;31717;-67
2022/09/20 14:28:04;;;;;;;;;;;;;;;17.68;43.03;100449.25;5314684;32;33392;-73
2022/09/20 14:31:16;;;;;;;;;;;;;;;16.80;44.91;100450.63;5330772;32;34327;-72
2022/09/20 14:34:18;;;;;;;;;;;;;;;18.23;42.69;100456.16;5313464;32;34303;-73
2022/09/20 14:37:24;;;;;;;;;;;;;;;17.02;45.06;100463.41;5338849;32;34040;-68
2022/09/20 14:40:26;;;;;;;;;;;;;;;16.90;43.61;100458.88;5313302;32;44575;-73
2022/09/20 14:43:32;;;;;;;;;;;;;;;16.28;43.92;100471.59;5301313;32;33557;-66
2022/09/20 14:46:35;;;;;;;;;;;;;;;16.34;44.44;100474.72;5333184;32;33731;-67
2022/09/20 14:49:37;;;;;;;;;;;;;;;16.13;44.67;100465.44;5304363;32;32896;-67
2022/09/20 14:52:42;;;;;;;;;;;;;;;16.05;44.49;100481.81;5337714;32;33882;-67
2022/09/20 14:55:54;;;;;;;;;;;;;;;16.53;43.42;100477.09;5322318;32;34047;-66
2022/09/20 14:59:05;;;;;;;;;;;;;;;16.92;43.38;100465.78;5329605;32;44558;-71
2022/09/20 15:02:11;;;;;;;;;;;;;;;16.04;44.77;100468.66;5332460;32;33944;-71
2022/09/20 15:05:20;;;;;;;;;;;;;;;16.36;44.61;100464.00;5321238;32;32906;-70
2022/09/20 15:08:22;;;;;;;;;;;;;;;16.07;45.39;100468.47;5339771;32;44763;-66
2022/09/20 15:11:24;;;;;;;;;;;;;;;16.50;45.01;100472.00;5316562;32;34394;-71
2022/09/20 15:14:26;;;;;;;;;;;;;;;16.57;45.14;100481.28;5337399;32;34570;-67
2022/09/20 15:17:27;;;;;;;;;;;;;;;16.92;44.70;100475.56;5315432;32;35079;-66
2022/09/20 15:20:29;;;;;;;;;;;;;;;17.04;44.93;100488.03;5319559;32;33075;-72
2022/09/20 15:23:31;;;;;;;;;;;;;;;17.46;44.14;100484.41;5332756;32;33657;-72
2022/09/20 15:26:33;;;;;;;;;;;;;;;16.86;45.95;100486.56;5321415;32;34175;-72
2022/09/20 15:29:35;;;;;;;;;;;;;;;15.77;50.07;100494.97;5339103;32;33006;-74
2022/09/20 15:32:37;;;;;;;;;;;;;;;16.28;49.16;100498.13;5323565;32;33636;-67
2022/09/20 15:35:40;;;;;;;;;;;;;;;15.93;51.27;100509.91;5338793;32;33412;-68
2022/09/20 15:38:42;;;;;;;;;;;;;;;15.51;52.60;100517.66;5322481;32;33321;-67
2022/09/20 15:41:44;;;;;;;;;;;;;;;15.45;50.64;100521.50;5325712;32;33610;-67
2022/09/20 15:44:52;;;;;;;;;;;;;;;15.21;49.97;100520.28;5315048;32;33705;-66
2022/09/20 15:47:55;;;;;;;;;;;;;;;15.68;48.31;100518.44;5324374;32;43904;-73
2022/09/20 15:51:03;;;;;;;;;;;;;;;15.40;49.61;100526.25;5354914;32;33755;-71
2022/09/20 15:54:06;;;;;;;;;;;;;;;15.28;50.78;100524.28;5323136;32;33249;-71
2022/09/20 15:57:08;;;;;;;;;;;;;;;15.56;50.85;100515.59;5334005;32;32867;-65
2022/09/20 16:00:10;;;;;;;;;;;;;;;14.80;53.75;100533.97;5327263;32;33367;-69
2022/09/20 16:03:12;;;;;;;;;;;;;;;14.74;55.22;100531.66;5326954;32;33937;-72
2022/09/20 16:06:14;;;;;;;;;;;;;;;15.16;54.84;100528.47;5340345;32;33474;-73
2022/09/20 16:09:17;;;;;;;;;;;;;;;15.16;54.46;100524.03;5323503;32;33778;-73
2022/09/20 16:12:22;;;;;;;;;;;;;;;14.51;57.59;100533.75;5332408;32;34100;-73